Time;durP1;ratioP1;P1;durP2;ratioP2;P2;SDS_P1;SDS_P2;PMS_P1;PMS_P2;Temp;Humidity;BMP_temperature;BMP_pressure;BME280_temperature;BME280_humidity;BME280_pressure;Samples;Min_cycle;Max_cycle;Signal;HPM_P1;HPM_P2
2021/10/09 00:00:11;;;;;;;41.37;17.43;;;11.30;99.90;;;;;;4988290;28;20230;-66
2021/10/09 00:02:39;;;;;;;80.03;17.00;;;11.30;99.90;;;;;;4993232;28;20237;-66
2021/10/09 00:05:08;;;;;;;36.30;18.17;;;11.20;99.90;;;;;;4999135;28;20269;-66
2021/10/09 00:07:37;;;;;;;39.27;17.47;;;11.30;99.90;;;;;;4996115;28;20243;-65
2021/10/09 00:10:07;;;;;;;21.40;17.33;;;11.30;99.90;;;;;;4993464;28;20645;-66
2021/10/09 00:12:36;;;;;;;37.93;19.37;;;11.30;99.90;;;;;;4990856;28;20731;-65
2021/10/09 00:15:05;;;;;;;77.80;18.47;;;11.30;99.90;;;;;;4988620;28;20232;-66
2021/10/09 00:17:35;;;;;;;77.37;18.67;;;11.20;99.90;;;;;;4997284;28;20643;-66
2021/10/09 00:20:03;;;;;;;24.87;18.60;;;11.10;99.90;;;;;;4995143;28;20226;-65
2021/10/09 00:22:31;;;;;;;31.17;18.27;;;11.10;99.90;;;;;;4979719;28;20247;-65
2021/10/09 00:24:59;;;;;;;33.37;17.37;;;11.00;99.90;;;;;;4999324;28;20241;-65
2021/10/09 00:27:27;;;;;;;22.13;17.07;;;11.00;99.90;;;;;;4995633;28;20315;-65
2021/10/09 00:29:55;;;;;;;20.33;17.93;;;11.00;99.90;;;;;;4984536;28;20263;-65
2021/10/09 00:32:23;;;;;;;31.87;18.47;;;11.00;99.90;;;;;;4995915;28;20254;-65
2021/10/09 00:34:53;;;;;;;27.40;19.47;;;11.10;99.90;;;;;;4994678;28;20274;-65
2021/10/09 00:37:21;;;;;;;23.67;18.03;;;11.00;99.90;;;;;;4991934;28;20260;-65
2021/10/09 00:39:50;;;;;;;22.27;17.17;;;11.00;99.90;;;;;;4991799;28;20246;-65
2021/10/09 00:42:19;;;;;;;20.40;17.70;;;11.00;99.90;;;;;;4995451;28;20250;-65
2021/10/09 00:44:47;;;;;;;21.47;18.73;;;11.00;99.90;;;;;;4993257;28;20481;-65
2021/10/09 00:47:16;;;;;;;19.70;17.57;;;10.90;99.90;;;;;;4998763;28;21274;-65
2021/10/09 00:49:45;;;;;;;20.47;17.77;;;10.90;99.90;;;;;;4987224;28;20649;-65
2021/10/09 00:52:14;;;;;;;19.37;17.33;;;10.80;99.90;;;;;;4989230;28;20639;-65
2021/10/09 00:54:45;;;;;;;19.43;17.37;;;10.70;99.90;;;;;;4995500;28;20296;-65
2021/10/09 00:57:16;;;;;;;18.23;16.33;;;10.70;99.90;;;;;;4998614;28;20277;-65
2021/10/09 00:59:45;;;;;;;18.83;16.70;;;10.70;99.90;;;;;;4988210;28;20239;-65
2021/10/09 01:02:13;;;;;;;18.10;16.30;;;10.60;99.90;;;;;;4981663;28;20246;-65
2021/10/09 01:04:47;;;;;;;17.73;15.87;;;10.60;99.90;;;;;;4996748;28;20236;-65
2021/10/09 01:07:16;;;;;;;16.80;15.10;;;10.60;99.90;;;;;;4978759;28;20247;-65
2021/10/09 01:09:46;;;;;;;23.43;14.20;;;10.50;99.90;;;;;;4976416;28;20317;-65
2021/10/09 01:12:15;;;;;;;31.20;13.60;;;10.50;99.90;;;;;;4972563;28;20247;-65
2021/10/09 01:14:44;;;;;;;14.90;13.40;;;10.40;99.90;;;;;;4978829;28;20509;-65
2021/10/09 01:17:15;;;;;;;18.57;14.03;;;10.40;99.90;;;;;;4972913;28;20236;-65
2021/10/09 01:19:45;;;;;;;16.43;13.93;;;10.30;99.90;;;;;;4978745;28;20237;-65
2021/10/09 01:22:16;;;;;;;16.37;14.67;;;10.30;99.90;;;;;;4976767;28;20709;-66
2021/10/09 01:24:44;;;;;;;20.40;13.57;;;10.20;99.90;;;;;;4976793;28;20228;-65
2021/10/09 01:27:17;;;;;;;16.20;13.77;;;10.20;99.90;;;;;;4971444;28;20306;-65
2021/10/09 01:29:47;;;;;;;17.53;13.07;;;10.20;99.90;;;;;;4970799;28;20357;-65
2021/10/09 01:32:18;;;;;;;14.03;12.63;;;10.20;99.90;;;;;;4990280;28;20280;-65
2021/10/09 01:34:47;;;;;;;15.37;13.77;;;10.10;99.90;;;;;;4974262;28;20263;-65
2021/10/09 01:37:19;;;;;;;14.47;13.07;;;10.10;99.90;;;;;;4975166;28;20240;-66
2021/10/09 01:39:52;;;;;;;15.37;13.77;;;10.10;99.90;;;;;;4972138;28;20257;-65
2021/10/09 01:42:25;;;;;;;15.30;13.70;;;10.10;99.90;;;;;;4980082;28;20243;-65
2021/10/09 01:44:53;;;;;;;16.50;14.37;;;10.10;99.90;;;;;;4975705;28;20664;-65
2021/10/09 01:47:22;;;;;;;16.83;14.43;;;10.10;99.90;;;;;;4969250;28;20315;-65
2021/10/09 01:49:50;;;;;;;17.77;15.47;;;10.00;99.90;;;;;;4969475;28;20326;-65
2021/10/09 01:52:20;;;;;;;18.43;15.63;;;10.00;99.90;;;;;;4972756;28;20319;-65
2021/10/09 01:54:49;;;;;;;18.37;16.30;;;10.00;99.90;;;;;;4973343;28;20652;-65
2021/10/09 01:57:20;;;;;;;18.63;16.17;;;10.00;99.90;;;;;;4988023;28;20708;-65
2021/10/09 01:59:52;;;;;;;21.20;18.40;;;10.00;99.90;;;;;;4986528;28;20260;-65
2021/10/09 02:02:25;;;;;;;20.90;17.33;;;10.20;99.90;;;;;;4994238;28;20231;-65
2021/10/09 02:04:53;;;;;;;22.50;19.07;;;10.10;99.90;;;;;;4974271;28;20239;-65
2021/10/09 02:07:24;;;;;;;21.93;18.83;;;10.00;99.90;;;;;;4983612;28;20239;-65
2021/10/09 02:09:55;;;;;;;23.73;20.23;;;10.00;99.90;;;;;;4971803;28;20327;-65
2021/10/09 02:12:25;;;;;;;23.27;18.87;;;10.00;99.90;;;;;;4978116;28;20652;-65
2021/10/09 02:14:58;;;;;;;24.13;19.43;;;10.00;99.90;;;;;;4972605;28;20245;-65
2021/10/09 02:26:02;;;;;;;30.77;22.67;;;10.00;99.90;;;;;;4913289;29;20729;-65
2021/10/09 02:28:32;;;;;;;30.07;22.00;;;10.00;99.90;;;;;;4900286;29;20711;-65
2021/10/09 02:31:00;;;;;;;26.03;20.63;;;10.00;99.90;;;;;;4931399;28;20240;-65
2021/10/09 02:33:29;;;;;;;27.70;21.60;;;10.10;99.90;;;;;;4975835;28;20499;-65
2021/10/09 02:36:01;;;;;;;31.43;23.57;;;10.00;99.90;;;;;;4979785;28;20253;-65
2021/10/09 02:38:32;;;;;;;30.53;21.97;;;10.00;99.90;;;;;;4984210;28;20230;-65
2021/10/09 02:41:01;;;;;;;26.50;20.97;;;9.90;99.90;;;;;;4971321;28;20293;-65
2021/10/09 02:43:30;;;;;;;25.97;21.23;;;10.00;99.90;;;;;;4991402;28;20256;-65
2021/10/09 02:46:00;;;;;;;29.33;22.53;;;10.00;99.90;;;;;;4972558;28;20780;-65
2021/10/09 02:48:35;;;;;;;31.73;23.90;;;9.90;99.90;;;;;;4983983;28;20230;-65
2021/10/09 02:51:03;;;;;;;30.47;22.20;;;10.00;99.90;;;;;;4971890;28;20241;-65
2021/10/09 02:53:34;;;;;;;29.37;22.20;;;10.00;99.90;;;;;;4991364;28;20230;-65
2021/10/09 02:56:02;;;;;;;29.00;22.20;;;9.90;99.90;;;;;;4972786;28;20270;-65
2021/10/09 02:58:34;;;;;;;27.23;21.33;;;9.90;99.90;;;;;;4968477;28;20238;-65
2021/10/09 03:01:03;;;;;;;32.70;22.80;;;9.90;99.90;;;;;;4969906;28;20461;-65
2021/10/09 03:03:32;;;;;;;28.90;21.57;;;9.90;99.90;;;;;;4971380;28;20255;-66
2021/10/09 03:06:00;;;;;;;28.83;22.27;;;9.80;99.90;;;;;;4971396;28;20237;-65
2021/10/09 03:08:32;;;;;;;30.00;21.10;;;9.80;99.90;;;;;;4989659;28;20247;-65
2021/10/09 03:11:02;;;;;;;27.87;22.33;;;9.80;99.90;;;;;;4971117;28;20265;-65
2021/10/09 03:13:30;;;;;;;27.10;21.93;;;9.70;99.90;;;;;;4975849;28;20635;-65
2021/10/09 03:15:59;;;;;;;30.17;23.33;;;9.70;99.90;;;;;;4977213;28;20735;-65
2021/10/09 03:18:27;;;;;;;26.53;21.13;;;9.70;99.90;;;;;;4982102;28;20235;-65
2021/10/09 03:20:55;;;;;;;27.13;22.37;;;9.60;99.90;;;;;;4988665;28;20248;-65
2021/10/09 03:23:23;;;;;;;26.50;21.30;;;9.60;99.90;;;;;;4970972;28;20249;-65
2021/10/09 03:25:55;;;;;;;29.87;21.87;;;9.60;99.90;;;;;;4981470;28;20243;-65
2021/10/09 03:28:23;;;;;;;28.40;21.37;;;9.60;99.90;;;;;;4989232;28;20238;-65
2021/10/09 03:30:53;;;;;;;27.73;21.23;;;9.70;99.90;;;;;;4969582;28;20238;-65
2021/10/09 03:33:21;;;;;;;34.13;21.80;;;9.60;99.90;;;;;;4974624;28;20725;-65
2021/10/09 03:35:49;;;;;;;32.57;22.53;;;9.60;99.90;;;;;;4976676;28;20248;-65
2021/10/09 03:38:18;;;;;;;28.93;21.63;;;9.50;99.90;;;;;;4990869;28;20318;-65
2021/10/09 03:40:51;;;;;;;32.30;22.07;;;9.60;99.90;;;;;;4968807;28;20303;-65
2021/10/09 03:43:23;;;;;;;27.40;21.20;;;9.50;99.90;;;;;;4980737;28;20234;-65
2021/10/09 03:45:58;;;;;;;30.67;21.40;;;9.50;99.90;;;;;;4978313;28;20290;-65
2021/10/09 03:48:36;;;;;;;26.70;21.43;;;9.50;99.90;;;;;;4982241;28;20238;-65
2021/10/09 03:53:49;;;;;;;30.13;20.77;;;9.50;99.90;;;;;;4973762;28;20274;-65
2021/10/09 03:56:17;;;;;;;26.67;21.47;;;9.40;99.90;;;;;;4973383;28;20233;-65
2021/10/09 03:58:50;;;;;;;26.37;20.83;;;9.50;99.90;;;;;;4987554;28;20231;-64
2021/10/09 04:01:20;;;;;;;29.60;21.80;;;9.40;99.90;;;;;;4975085;28;20234;-65
2021/10/09 04:03:48;;;;;;;28.27;21.53;;;9.40;99.90;;;;;;4968506;28;20314;-65
2021/10/09 04:06:16;;;;;;;28.57;20.87;;;9.40;99.90;;;;;;4970223;28;20330;-65
2021/10/09 04:08:45;;;;;;;30.43;21.10;;;9.40;99.90;;;;;;4973744;28;20285;-65
2021/10/09 04:11:13;;;;;;;25.93;20.77;;;9.30;99.90;;;;;;4993189;28;20230;-65
2021/10/09 04:13:41;;;;;;;25.80;19.73;;;9.30;99.90;;;;;;4980329;28;20314;-65
2021/10/09 04:16:12;;;;;;;28.83;21.40;;;9.30;99.90;;;;;;4991283;28;20233;-65
2021/10/09 04:18:40;;;;;;;26.13;20.27;;;9.20;99.90;;;;;;4976423;28;20667;-65
2021/10/09 04:21:09;;;;;;;27.93;20.20;;;9.20;99.90;;;;;;4974366;28;20946;-64
2021/10/09 04:23:37;;;;;;;26.53;20.67;;;9.30;99.90;;;;;;4973779;28;20892;-65
2021/10/09 04:26:06;;;;;;;27.17;21.10;;;9.20;99.90;;;;;;4974579;28;20287;-65
2021/10/09 04:28:35;;;;;;;33.10;20.40;;;9.20;99.90;;;;;;4969809;28;20727;-65
2021/10/09 04:31:03;;;;;;;29.93;21.53;;;9.30;99.90;;;;;;4987586;28;20718;-65
2021/10/09 04:33:33;;;;;;;27.27;21.63;;;9.20;99.90;;;;;;4972285;28;20755;-65
2021/10/09 04:36:01;;;;;;;24.87;19.57;;;9.20;99.90;;;;;;4968576;28;20282;-65
2021/10/09 04:38:29;;;;;;;28.57;19.93;;;9.20;99.90;;;;;;4981824;28;20318;-65
2021/10/09 04:40:57;;;;;;;23.50;18.73;;;9.10;99.90;;;;;;4985018;28;20477;-65
2021/10/09 04:43:27;;;;;;;25.03;18.93;;;9.10;99.90;;;;;;4973343;28;20234;-65
2021/10/09 04:45:55;;;;;;;27.97;20.80;;;9.20;99.90;;;;;;4967907;28;20640;-65
2021/10/09 04:48:24;;;;;;;25.17;20.43;;;9.00;99.90;;;;;;4987566;28;20255;-65
2021/10/09 04:50:56;;;;;;;28.03;19.67;;;9.10;99.90;;;;;;4972824;28;20245;-65
2021/10/09 04:53:25;;;;;;;23.13;19.67;;;9.00;99.90;;;;;;4977983;28;20231;-65
2021/10/09 04:55:53;;;;;;;25.70;20.07;;;9.00;99.90;;;;;;4977676;28;20239;-65
2021/10/09 04:58:22;;;;;;;28.77;21.30;;;9.00;99.90;;;;;;4977655;28;20247;-65
2021/10/09 05:00:51;;;;;;;25.70;19.23;;;9.00;99.90;;;;;;4975966;28;20238;-65
2021/10/09 05:03:20;;;;;;;26.90;21.10;;;9.00;99.90;;;;;;4985237;28;20238;-64
2021/10/09 05:05:48;;;;;;;25.43;19.90;;;8.90;99.90;;;;;;4972878;28;20243;-65
2021/10/09 05:08:18;;;;;;;26.60;20.73;;;8.90;99.90;;;;;;4980881;28;20587;-64
2021/10/09 05:10:46;;;;;;;26.13;19.67;;;8.90;99.90;;;;;;4968807;28;20633;-65
2021/10/09 05:13:20;;;;;;;26.73;19.60;;;8.90;99.90;;;;;;4989036;28;20253;-65
2021/10/09 05:15:49;;;;;;;26.50;20.33;;;8.80;99.90;;;;;;4957939;28;20710;-65
2021/10/09 05:18:21;;;;;;;26.73;20.63;;;8.80;99.90;;;;;;4957777;28;20297;-65
2021/10/09 05:20:49;;;;;;;25.60;19.03;;;8.80;99.90;;;;;;4954542;28;20724;-65
2021/10/09 05:23:21;;;;;;;27.23;20.63;;;8.90;99.90;;;;;;4950962;28;20251;-65
2021/10/09 05:25:54;;;;;;;29.07;20.43;;;8.80;99.90;;;;;;4967069;28;20309;-64
2021/10/09 05:28:32;;;;;;;29.77;20.13;;;8.80;99.90;;;;;;4974888;28;20242;-65
2021/10/09 05:31:01;;;;;;;23.00;19.57;;;8.70;99.90;;;;;;4959164;28;20261;-65
2021/10/09 05:33:38;;;;;;;26.50;19.80;;;8.70;99.90;;;;;;4970532;28;20798;-64
2021/10/09 05:36:08;;;;;;;29.50;20.17;;;8.60;99.90;;;;;;4988828;28;20238;-64
2021/10/09 05:38:39;;;;;;;30.10;21.17;;;8.70;99.90;;;;;;4975871;28;20403;-65
2021/10/09 05:41:07;;;;;;;30.30;20.30;;;8.60;99.90;;;;;;4952389;28;20242;-65
2021/10/09 05:43:40;;;;;;;28.00;20.13;;;8.50;99.90;;;;;;4964397;28;20695;-65
2021/10/09 05:46:09;;;;;;;29.37;20.77;;;8.50;99.90;;;;;;4968060;28;20259;-64
2021/10/09 05:48:39;;;;;;;25.30;19.70;;;8.50;99.90;;;;;;4966698;28;20758;-64
2021/10/09 05:51:12;;;;;;;30.67;20.87;;;8.60;99.90;;;;;;4968210;28;20276;-65
2021/10/09 05:54:00;;;;;;;25.23;19.70;;;8.60;99.90;;;;;;4953914;28;20234;-65
2021/10/09 05:56:40;;;;;;;28.13;18.60;;;8.50;99.90;;;;;;4955938;28;20242;-65
2021/10/09 06:44:28;;;;;;;25.60;18.30;;;8.90;99.90;;;;;;4981131;28;20251;-64
2021/10/09 07:00:48;;;;;;;28.00;17.63;;;9.20;99.90;;;;;;4990949;28;20705;-65
2021/10/09 07:03:20;;;;;;;23.90;17.40;;;9.20;99.90;;;;;;4980231;28;20292;-65
2021/10/09 07:05:51;;;;;;;22.70;17.83;;;9.30;99.90;;;;;;4984997;28;20293;-65
2021/10/09 07:08:36;;;;;;;23.77;18.07;;;9.40;99.90;;;;;;4985088;28;20238;-65
2021/10/09 07:11:16;;;;;;;23.17;17.40;;;9.50;99.90;;;;;;4968493;28;20334;-65
2021/10/09 07:13:45;;;;;;;29.40;18.30;;;9.50;99.90;;;;;;4971241;28;20230;-65
2021/10/09 07:16:19;;;;;;;23.17;18.17;;;9.50;99.90;;;;;;4969292;28;20255;-65
2021/10/09 07:18:48;;;;;;;23.00;16.50;;;9.70;99.90;;;;;;4968962;28;20347;-65
2021/10/09 07:21:16;;;;;;;23.37;17.27;;;9.80;99.90;;;;;;4970647;28;20660;-66
2021/10/09 07:23:45;;;;;;;21.23;16.87;;;9.90;99.90;;;;;;4970103;28;20234;-65
2021/10/09 07:26:13;;;;;;;21.80;17.00;;;10.00;99.90;;;;;;4971685;28;20901;-65
2021/10/09 07:28:41;;;;;;;25.33;15.93;;;10.10;99.90;;;;;;4974649;28;20538;-65
2021/10/09 07:31:10;;;;;;;20.30;16.43;;;10.10;99.90;;;;;;4971468;28;20314;-65
2021/10/09 07:33:39;;;;;;;22.40;16.30;;;10.10;99.90;;;;;;4975247;28;20324;-65
2021/10/09 07:36:07;;;;;;;21.93;15.93;;;10.30;99.90;;;;;;4982243;28;20233;-66
2021/10/09 07:38:35;;;;;;;22.00;15.80;;;10.40;99.90;;;;;;4987427;28;20746;-65
2021/10/09 07:41:04;;;;;;;21.20;16.47;;;10.70;99.90;;;;;;4975435;28;20245;-65
2021/10/09 07:43:32;;;;;;;21.73;15.33;;;10.80;99.90;;;;;;4970235;28;20243;-66
2021/10/09 07:46:01;;;;;;;22.50;15.23;;;10.90;99.90;;;;;;4976574;28;20384;-66
2021/10/09 07:48:29;;;;;;;21.90;16.00;;;11.00;99.90;;;;;;4977050;28;20249;-66
2021/10/09 07:50:58;;;;;;;18.73;15.07;;;11.20;99.90;;;;;;4972057;28;20250;-65
2021/10/09 07:53:26;;;;;;;21.67;15.57;;;11.40;99.90;;;;;;4974072;28;20246;-65
2021/10/09 07:55:55;;;;;;;18.93;14.73;;;11.50;99.90;;;;;;4973754;28;21054;-66
2021/10/09 07:58:23;;;;;;;20.97;15.37;;;11.60;99.90;;;;;;4974843;28;20246;-66
2021/10/09 08:00:51;;;;;;;21.20;15.43;;;11.60;99.90;;;;;;4969479;28;20716;-66
2021/10/09 08:03:24;;;;;;;20.73;15.27;;;11.80;99.90;;;;;;4974007;28;20256;-66
2021/10/09 08:05:53;;;;;;;23.40;15.47;;;11.80;99.90;;;;;;4974277;28;20226;-66
2021/10/09 08:08:23;;;;;;;21.37;14.63;;;12.00;99.90;;;;;;4973707;28;20239;-66
2021/10/09 08:10:53;;;;;;;18.40;14.63;;;12.10;99.90;;;;;;4966562;28;20705;-66
2021/10/09 08:13:21;;;;;;;20.30;14.40;;;12.20;99.90;;;;;;4977959;28;20265;-66
2021/10/09 08:15:49;;;;;;;23.30;15.43;;;12.30;99.90;;;;;;4973416;28;20235;-66
2021/10/09 08:18:17;;;;;;;20.20;14.90;;;12.30;99.90;;;;;;4972265;28;20247;-66
2021/10/09 08:20:49;;;;;;;19.80;14.57;;;12.40;99.90;;;;;;4971117;28;20240;-66
2021/10/09 08:23:20;;;;;;;22.33;15.13;;;12.60;99.90;;;;;;4975434;28;20655;-66
2021/10/09 08:26:22;;;;;;;22.07;14.57;;;12.60;99.90;;;;;;4320058;28;10001263;-66
2021/10/09 08:37:19;;;;;;;20.53;13.87;;;12.80;99.90;;;;;;4978296;28;20732;-66
2021/10/09 08:39:46;;;;;;;20.40;13.70;;;12.90;99.90;;;;;;4981295;28;20259;-66
2021/10/09 08:42:16;;;;;;;20.43;13.63;;;13.10;99.90;;;;;;4979329;28;21307;-66
2021/10/09 08:44:44;;;;;;;21.10;13.33;;;13.10;99.90;;;;;;4987285;28;20295;-66
2021/10/09 08:47:16;;;;;;;19.60;13.30;;;13.30;99.90;;;;;;4983943;28;20249;-66
2021/10/09 08:49:45;;;;;;;19.13;13.80;;;13.40;99.90;;;;;;4982458;28;21398;-66
2021/10/09 08:52:20;;;;;;;19.60;13.83;;;13.60;99.90;;;;;;4983976;28;20254;-66
2021/10/09 08:54:48;;;;;;;21.20;13.07;;;13.70;99.90;;;;;;4982564;28;20327;-66
2021/10/09 08:57:20;;;;;;;17.13;12.27;;;13.80;99.90;;;;;;4998621;28;20811;-66
2021/10/09 08:59:51;;;;;;;17.63;13.13;;;13.90;99.90;;;;;;4986095;28;20415;-66
2021/10/09 09:02:24;;;;;;;21.97;13.30;;;14.20;99.90;;;;;;4988404;28;20633;-66
2021/10/09 09:05:01;;;;;;;17.10;12.80;;;14.30;99.90;;;;;;4988575;28;20251;-66
2021/10/09 09:07:50;;;;;;;16.77;12.90;;;14.40;99.90;;;;;;4984958;28;20233;-66
2021/10/09 09:30:49;;;;;;;15.77;11.90;;;14.70;99.90;;;;;;4984397;28;20685;-66
2021/10/09 09:33:37;;;;;;;19.73;11.50;;;14.80;99.90;;;;;;4993654;28;20404;-66
2021/10/09 09:36:25;;;;;;;15.63;11.90;;;14.90;99.90;;;;;;4992809;28;20642;-66
2021/10/09 09:38:55;;;;;;;23.03;12.37;;;15.00;99.90;;;;;;4987690;28;20256;-66
2021/10/09 09:41:25;;;;;;;17.67;11.60;;;15.00;99.90;;;;;;4990715;28;20241;-66
2021/10/09 09:43:59;;;;;;;16.57;11.40;;;14.70;99.90;;;;;;4965906;28;20589;-66
2021/10/09 09:46:28;;;;;;;17.20;11.27;;;15.00;99.90;;;;;;4998614;28;20261;-66
2021/10/09 09:48:56;;;;;;;18.40;11.50;;;14.90;99.90;;;;;;4992719;28;20240;-66
2021/10/09 09:51:24;;;;;;;16.17;10.50;;;15.00;99.90;;;;;;4992320;28;20499;-66
2021/10/09 09:53:52;;;;;;;15.93;10.33;;;15.10;99.90;;;;;;4995865;28;20225;-67
2021/10/09 09:56:21;;;;;;;16.13;11.00;;;15.30;99.90;;;;;;4991575;28;20265;-66
2021/10/09 09:58:54;;;;;;;16.33;10.17;;;15.40;99.90;;;;;;4992534;28;20334;-66
2021/10/09 10:01:24;;;;;;;16.87;11.30;;;15.40;99.90;;;;;;4993125;28;20237;-66
2021/10/09 10:03:58;;;;;;;16.00;10.57;;;15.40;99.90;;;;;;4994557;28;20257;-66
2021/10/09 10:06:28;;;;;;;20.57;9.90;;;15.70;99.90;;;;;;4990199;28;20675;-66
2021/10/09 10:08:56;;;;;;;17.43;10.27;;;15.60;99.90;;;;;;4998430;28;20241;-66
2021/10/09 10:11:26;;;;;;;17.80;10.23;;;15.80;99.90;;;;;;4996820;28;20590;-66
2021/10/09 10:13:57;;;;;;;13.53;9.63;;;15.90;99.90;;;;;;4992277;28;20446;-66
2021/10/09 10:16:26;;;;;;;17.23;9.17;;;15.90;99.90;;;;;;4994056;28;20325;-66
2021/10/09 10:18:58;;;;;;;13.80;9.20;;;16.10;99.90;;;;;;4996995;28;20299;-66
2021/10/09 10:21:46;;;;;;;17.57;9.97;;;15.90;99.90;;;;;;4997428;28;20313;-66
2021/10/09 10:24:39;;;;;;;13.70;9.10;;;15.60;99.90;;;;;;4986148;28;20909;-66
2021/10/09 10:27:33;;;;;;;11.83;7.93;;;15.80;99.90;;;;;;5000480;28;20283;-66
2021/10/09 10:30:20;;;;;;;15.37;8.47;;;15.70;99.90;;;;;;4987164;28;20233;-66
2021/10/09 10:33:25;;;;;;;12.80;8.50;;;15.80;99.90;;;;;;4993867;28;20250;-66
2021/10/09 10:35:55;;;;;;;13.60;8.47;;;16.00;99.90;;;;;;4992481;28;20260;-66
2021/10/09 10:38:56;;;;;;;14.03;8.80;;;16.10;99.90;;;;;;4992722;28;20920;-66
2021/10/09 10:41:46;;;;;;;12.47;8.53;;;16.30;99.90;;;;;;4947880;28;20316;-66
2021/10/09 10:45:03;;;;;;;10.37;8.00;;;16.50;99.90;;;;;;4988894;28;20325;-66
2021/10/09 10:47:49;;;;;;;11.53;8.33;;;16.40;99.90;;;;;;4978758;28;20229;-66
2021/10/09 10:51:01;;;;;;;13.03;7.70;;;16.20;99.90;;;;;;4988851;28;20641;-66
2021/10/09 10:54:28;;;;;;;14.83;7.50;;;16.40;99.90;;;;;;4987040;28;20296;-66
2021/10/09 10:57:21;;;;;;;12.93;6.93;;;16.40;99.90;;;;;;4991602;28;20713;-66
2021/10/09 10:59:56;;;;;;;10.03;5.60;;;16.50;99.90;;;;;;4992712;28;20276;-66
2021/10/09 11:02:29;;;;;;;8.47;5.60;;;16.50;99.90;;;;;;4970434;28;20840;-66
2021/10/09 11:04:59;;;;;;;8.73;5.60;;;16.50;99.90;;;;;;4997159;28;20317;-67
2021/10/09 11:07:29;;;;;;;7.77;5.30;;;16.70;99.90;;;;;;4987881;28;20234;-66
2021/10/09 11:10:06;;;;;;;7.17;4.83;;;17.00;99.90;;;;;;4982944;28;20259;-66
2021/10/09 11:12:37;;;;;;;8.33;4.77;;;17.40;99.90;;;;;;4996231;28;20321;-66
2021/10/09 11:15:15;;;;;;;7.53;5.30;;;17.70;99.90;;;;;;4995064;28;20225;-66
2021/10/09 11:17:45;;;;;;;6.93;5.10;;;17.70;99.90;;;;;;4997628;28;20325;-66
2021/10/09 11:20:20;;;;;;;8.37;4.80;;;17.90;99.90;;;;;;4990300;28;20669;-67
2021/10/09 11:22:51;;;;;;;8.27;4.83;;;17.90;99.90;;;;;;4987025;28;20325;-66
2021/10/09 11:25:28;;;;;;;8.50;4.60;;;17.70;99.90;;;;;;4992020;28;20318;-67
2021/10/09 11:27:59;;;;;;;8.77;5.00;;;17.60;99.90;;;;;;4986987;28;20321;-66
2021/10/09 11:30:30;;;;;;;6.87;4.30;;;17.50;99.90;;;;;;5000374;28;20230;-66
2021/10/09 11:32:59;;;;;;;8.37;4.87;;;17.20;99.90;;;;;;4993873;28;20239;-66
2021/10/09 11:35:33;;;;;;;7.07;4.97;;;16.70;99.90;;;;;;4990013;28;20322;-66
2021/10/09 11:38:03;;;;;;;10.07;4.60;;;16.30;99.90;;;;;;4982543;28;20241;-66
2021/10/09 11:40:34;;;;;;;11.70;4.77;;;16.20;99.90;;;;;;4982876;28;20233;-66
2021/10/09 11:43:12;;;;;;;6.77;4.67;;;16.30;99.90;;;;;;4989957;28;20238;-66
2021/10/09 11:45:47;;;;;;;8.63;4.90;;;16.30;99.90;;;;;;4991969;28;20233;-66
2021/10/09 11:54:00;;;;;;;8.03;4.87;;;16.10;99.90;;;;;;4991023;28;20320;-66
2021/10/09 11:56:29;;;;;;;8.20;4.60;;;15.90;99.90;;;;;;4988138;28;20237;-66
2021/10/09 11:58:59;;;;;;;7.37;4.97;;;16.10;99.90;;;;;;4991976;28;20237;-66
2021/10/09 12:01:36;;;;;;;8.30;4.97;;;16.30;99.90;;;;;;4990863;28;20688;-66
2021/10/09 12:04:18;;;;;;;8.03;5.00;;;16.30;99.90;;;;;;4992914;28;20777;-66
2021/10/09 12:06:49;;;;;;;7.97;4.70;;;16.40;99.90;;;;;;4985331;28;20572;-66
2021/10/09 12:09:34;;;;;;;8.10;4.70;;;16.40;99.90;;;;;;4989755;28;20276;-67
2021/10/09 12:12:17;;;;;;;8.23;4.87;;;16.60;99.90;;;;;;4998300;28;20241;-66
2021/10/09 12:14:48;;;;;;;9.80;5.07;;;16.70;99.90;;;;;;4979122;28;20237;-66
2021/10/09 12:17:18;;;;;;;7.77;4.77;;;16.70;99.90;;;;;;4999740;28;20583;-66
2021/10/09 12:19:48;;;;;;;8.60;4.83;;;16.70;99.90;;;;;;4991386;28;20626;-67
2021/10/09 12:22:16;;;;;;;10.83;5.17;;;16.70;99.90;;;;;;4993414;28;20231;-66
2021/10/09 12:24:49;;;;;;;8.33;4.70;;;16.70;99.90;;;;;;4986124;28;20701;-66
2021/10/09 12:27:19;;;;;;;7.03;4.77;;;16.80;99.90;;;;;;4995458;28;20609;-66
2021/10/09 12:29:59;;;;;;;8.07;4.80;;;16.60;99.90;;;;;;4990227;28;20340;-66
2021/10/09 12:32:29;;;;;;;7.13;4.40;;;16.50;99.90;;;;;;4986778;28;20713;-66
2021/10/09 12:35:06;;;;;;;5.10;4.40;;;16.60;99.90;;;;;;4983300;28;20230;-66
2021/10/09 12:37:36;;;;;;;6.50;4.27;;;16.50;99.90;;;;;;4978383;28;20319;-66
2021/10/09 12:40:13;;;;;;;6.10;4.10;;;16.40;99.90;;;;;;4978214;28;20300;-66
2021/10/09 12:42:45;;;;;;;7.57;4.27;;;16.40;99.90;;;;;;4983091;28;20594;-66
2021/10/09 12:45:15;;;;;;;6.47;4.10;;;16.40;99.90;;;;;;4989737;28;20575;-66
2021/10/09 12:48:02;;;;;;;8.87;4.57;;;16.40;99.90;;;;;;4995571;28;20247;-66
2021/10/09 12:50:33;;;;;;;6.37;4.00;;;16.40;99.90;;;;;;4980844;28;20236;-66
2021/10/09 12:53:01;;;;;;;9.43;4.93;;;16.30;99.90;;;;;;4997378;28;20248;-66
2021/10/09 12:55:33;;;;;;;10.53;4.53;;;16.30;99.90;;;;;;4980946;28;20265;-66
2021/10/09 12:58:04;;;;;;;9.20;4.20;;;16.30;99.90;;;;;;4989259;28;20447;-66
2021/10/09 13:00:35;;;;;;;7.97;4.30;;;16.40;99.90;;;;;;4981979;28;20244;-66
2021/10/09 13:03:04;;;;;;;7.77;4.20;;;16.30;99.90;;;;;;4982366;28;20243;-66
2021/10/09 13:05:32;;;;;;;8.93;4.63;;;16.20;99.90;;;;;;4992580;28;20333;-66
2021/10/09 13:08:03;;;;;;;7.13;4.10;;;16.30;99.90;;;;;;4986816;28;20561;-66
2021/10/09 13:10:34;;;;;;;5.60;4.13;;;16.30;99.90;;;;;;4997331;28;20234;-66
2021/10/09 13:13:02;;;;;;;8.20;3.93;;;16.10;99.90;;;;;;4986173;28;20238;-66
2021/10/09 13:15:30;;;;;;;9.00;4.37;;;16.10;99.90;;;;;;4988033;28;20337;-66
2021/10/09 13:17:59;;;;;;;8.07;4.10;;;16.10;99.90;;;;;;4984951;28;20258;-66
2021/10/09 13:20:32;;;;;;;6.53;3.77;;;16.10;99.90;;;;;;4989549;28;20234;-66
2021/10/09 13:23:03;;;;;;;6.60;3.57;;;16.20;99.90;;;;;;4988168;28;20329;-66
2021/10/09 13:25:36;;;;;;;5.87;3.50;;;16.20;99.90;;;;;;4985282;28;20230;-67
2021/10/09 13:28:05;;;;;;;5.53;3.43;;;16.20;99.90;;;;;;4982093;28;20230;-66
2021/10/09 13:30:35;;;;;;;7.13;3.67;;;16.20;99.90;;;;;;4998903;28;20242;-66
2021/10/09 13:33:04;;;;;;;10.07;4.17;;;16.20;99.90;;;;;;4990794;28;20693;-66
2021/10/09 13:35:32;;;;;;;12.23;4.67;;;16.20;99.90;;;;;;4994472;28;20556;-66
2021/10/09 13:38:02;;;;;;;5.40;3.73;;;16.30;99.90;;;;;;4974661;28;20230;-66
2021/10/09 13:40:31;;;;;;;7.27;3.57;;;16.20;99.90;;;;;;4978984;28;20233;-66
2021/10/09 13:42:59;;;;;;;7.93;4.10;;;16.10;99.90;;;;;;4973923;28;20628;-67
2021/10/09 13:45:28;;;;;;;6.37;3.97;;;16.20;99.90;;;;;;4974402;28;20591;-66
2021/10/09 13:47:56;;;;;;;8.17;3.80;;;16.20;99.90;;;;;;4978185;28;20233;-66
2021/10/09 13:50:32;;;;;;;8.23;3.97;;;16.20;99.90;;;;;;4974819;28;20246;-65
2021/10/09 13:53:00;;;;;;;5.03;3.43;;;16.10;99.90;;;;;;4973434;28;20295;-66
2021/10/09 13:55:29;;;;;;;6.33;3.60;;;16.10;99.90;;;;;;4972360;28;20274;-66
2021/10/09 13:57:57;;;;;;;6.83;3.40;;;16.10;99.90;;;;;;4975534;28;20246;-66
2021/10/09 14:00:25;;;;;;;8.70;4.00;;;16.00;99.90;;;;;;4975920;28;20245;-66
2021/10/09 14:02:53;;;;;;;6.47;3.83;;;16.00;99.90;;;;;;4975273;28;20252;-66
2021/10/09 14:05:21;;;;;;;6.27;3.67;;;15.90;99.90;;;;;;4973288;28;20665;-66
2021/10/09 14:07:51;;;;;;;7.83;3.83;;;15.90;99.90;;;;;;4977324;28;20848;-66
2021/10/09 14:10:19;;;;;;;6.70;3.97;;;15.90;99.90;;;;;;4981393;28;20584;-66
2021/10/09 14:12:48;;;;;;;8.03;4.17;;;15.90;99.90;;;;;;4977012;28;20775;-66
2021/10/09 14:15:16;;;;;;;8.20;4.47;;;15.80;99.90;;;;;;4982054;28;20360;-66
2021/10/09 14:17:44;;;;;;;8.73;4.07;;;15.70;99.90;;;;;;4976287;28;20241;-66
2021/10/09 14:20:13;;;;;;;8.13;3.70;;;15.60;99.90;;;;;;4982517;28;20857;-66
2021/10/09 14:22:42;;;;;;;10.50;3.83;;;15.60;99.90;;;;;;4980470;28;20756;-66
2021/10/09 14:25:15;;;;;;;4.90;3.93;;;15.60;99.90;;;;;;4974314;28;20693;-65
2021/10/09 14:27:43;;;;;;;10.23;3.67;;;15.60;99.90;;;;;;4980071;28;20440;-66
2021/10/09 14:30:13;;;;;;;8.60;4.10;;;15.70;99.90;;;;;;4976388;28;20238;-66
2021/10/09 14:32:42;;;;;;;8.00;3.83;;;15.60;99.90;;;;;;4978348;28;20241;-66
2021/10/09 14:35:11;;;;;;;8.30;4.30;;;15.50;99.90;;;;;;4981124;28;20236;-66
2021/10/09 14:37:42;;;;;;;7.00;4.10;;;15.50;99.90;;;;;;4981595;28;20729;-66
2021/10/09 14:40:13;;;;;;;10.23;4.03;;;15.40;99.90;;;;;;4979761;28;20234;-66
2021/10/09 14:42:44;;;;;;;6.23;3.77;;;15.40;99.90;;;;;;4987677;28;20234;-66